Portada
METAR-TAF:

METAR-TAF

Aeroports :

Tindouf, Algèria

latitud: 27-40N, longitud: 008-08W, altitud: 431 m

Observació

L'informe es va fer fa 1 hora i 28 minuts, a les 05:00 UTC
Vent 7 kt del Nord/Nord-Est
Temperatura 23°C
Humitat 50%
Pressió 1017 hPa
Visibilitat 10 km o més
sense núvols per sota de 1500 mi sense presència de cumulonimbus.

METAR: DAOF 260500Z 03007KT CAVOK 23/12 Q1017

Hora: 07:28 (06:28 UTC)

Pronòstic

L'informe es va fer fa 1 hora i 28 minuts, a les 05:00 UTC
Pronòstic vàlid del 26 a les 06 UTC al 26 a les 15 UTC
Vent 8 kt del Nord-Est
Visibilitat 10 km o més
sense núvols per sota de 1500 mi sense presència de cumulonimbus.
Probabilitat 30%
l' 26 a les 07 UTC al 26 a les 15 UTC
Visibilitat: 4000 m
calitja
Probabilitat 40% :
Temporalment
l' 26 a les 10 UTC al 26 a les 15 UTC
Vent 15 kt del Est/Nord-Est amb ràfegues de 25 kt
Visibilitat: 4000 m
torb baixa de sorra

TAF: DAOF 260500Z 2606/2615 04008KT CAVOK PROB30 2607/2615 4000 HZ PROB40 TEMPO 2610/2615 06015G25KT 4000 DRSA

Observacions i pronòstics meteorològics de més de 4000 aeroports (METAR i TAF).

Les estacions disponibles són els punts grocs i vermells al mapa.

Posi el ratolí al punt desitjat per veure el nom de l'estació.

Feu clic per veure les observacions i els pronòstics meteorològics.

Per canviar el mapa: feu clic els botons verds amb una creu de color negre per apropar; al botó verd amb un guió per allunyar la imatge; o en les fletxes verdes per a mapes adjacents.


METAR-TAF: